Arlington, VA (22203)

6:24 AM EST on December 07, 2016 (GMT -0500)
| | Change Station

Elev -9999 ft 0.00 °N, 0.00 °E | Updated

Partly Cloudy
Partly Cloudy
43 °F
Feels Like 38 °F
N
9
Wind Variable Wind from NW
Gusts mph

Today
High -- | Low -- °F
--% Chance of Precip.
Yesterday
High -- | Low -- °F
Precip. -- in
Pressure 29.97 in
Visibility 10.0 miles
Clouds Overcast 3700 ft
Windchill 38 °F
Dew Point 38 °F
Humidity 81%
Rainfall --
Snow Depth Not available.
7:14 AM 4:46 PM
Waxing Crescent, 51% visible
METAR KDCA 071052Z 35004KT 10SM OVC037 07/05 A2997 RMK AO2 SLP147 T00670050
Pressure 29.97 in
Visibility 10.0 miles
Clouds Overcast 3700 ft
Windchill 38 °F
Dew Point 38 °F
Humidity 81%
Rainfall --
Snow Depth Not available.
7:14 AM 4:46 PM
Waxing Crescent, 51% visible
METAR KDCA 071052Z 35004KT 10SM OVC037 07/05 A2997 RMK AO2 SLP147 T00670050

10-Day Weather Forecast

Almanac

Astronomy

Dec. 07, 2016 Rise Set
Actual Time
Civil Twilight
Nautical Twilight
Astronomical Twilight
Moon
Length of Visible Light
Length of Day
Tomorrow will be .
, % of the Moon is Illuminated

Today's Extremes

State Highs State Lows

Community

WunderPhotos

Upload Photos

1,956,111 photos uploaded!

WunderBlog® & News

Nearby

Air Quality

  Air Quality AQ Index Pollutant
Not available.

Snow Depth

Station Depth Elevation

Earthquake Activity

City Distance Mag. Time & Date
Minimum magnitude displayed is 2.5.

Coastal Water Temperatures

Place Temperature

Stations

Nearby Weather Stations

Station Location Temp. Windchill Dew Point Humidity Wind Precip. Elev Updated Type
                   

Watches & Warnings

There are currently no watches in effect.